sensor_id;sensor_type;location;lat;lon;timestamp;P1;durP1;ratioP1;P2;durP2;ratioP2
1404;SDS011;697;51.114;6.542;2023-09-08T00:00:55;7.67;;;7.00;;
1404;SDS011;697;51.114;6.542;2023-09-08T00:03:22;7.27;;;6.60;;
1404;SDS011;697;51.114;6.542;2023-09-08T00:05:49;8.57;;;6.67;;
1404;SDS011;697;51.114;6.542;2023-09-08T00:08:17;7.90;;;7.10;;
1404;SDS011;697;51.114;6.542;2023-09-08T00:10:44;7.33;;;6.63;;
1404;SDS011;697;51.114;6.542;2023-09-08T00:13:11;7.67;;;6.93;;
1404;SDS011;697;51.114;6.542;2023-09-08T00:15:38;6.80;;;6.20;;
1404;SDS011;697;51.114;6.542;2023-09-08T00:18:04;7.20;;;6.60;;
1404;SDS011;697;51.114;6.542;2023-09-08T00:20:31;7.70;;;6.87;;
1404;SDS011;697;51.114;6.542;2023-09-08T00:22:58;7.73;;;6.50;;
1404;SDS011;697;51.114;6.542;2023-09-08T00:25:26;9.60;;;6.30;;
1404;SDS011;697;51.114;6.542;2023-09-08T00:27:53;6.60;;;6.00;;
1404;SDS011;697;51.114;6.542;2023-09-08T00:30:19;7.77;;;7.13;;
1404;SDS011;697;51.114;6.542;2023-09-08T00:32:46;7.37;;;6.67;;
1404;SDS011;697;51.114;6.542;2023-09-08T00:35:13;7.20;;;6.60;;
1404;SDS011;697;51.114;6.542;2023-09-08T00:37:40;7.07;;;6.47;;
1404;SDS011;697;51.114;6.542;2023-09-08T00:40:07;7.30;;;6.50;;
1404;SDS011;697;51.114;6.542;2023-09-08T00:42:38;7.47;;;6.83;;
1404;SDS011;697;51.114;6.542;2023-09-08T00:45:05;13.83;;;6.70;;
1404;SDS011;697;51.114;6.542;2023-09-08T00:47:33;7.73;;;6.93;;
1404;SDS011;697;51.114;6.542;2023-09-08T00:50:00;8.63;;;7.17;;
1404;SDS011;697;51.114;6.542;2023-09-08T00:52:28;7.87;;;7.17;;
1404;SDS011;697;51.114;6.542;2023-09-08T00:54:57;7.80;;;7.10;;
1404;SDS011;697;51.114;6.542;2023-09-08T00:57:25;7.27;;;6.57;;
1404;SDS011;697;51.114;6.542;2023-09-08T00:59:53;7.43;;;6.70;;
1404;SDS011;697;51.114;6.542;2023-09-08T01:02:20;7.77;;;6.60;;
1404;SDS011;697;51.114;6.542;2023-09-08T01:04:47;9.43;;;7.30;;
1404;SDS011;697;51.114;6.542;2023-09-08T01:07:15;7.20;;;6.53;;
1404;SDS011;697;51.114;6.542;2023-09-08T01:09:45;7.00;;;6.50;;
1404;SDS011;697;51.114;6.542;2023-09-08T01:12:13;7.60;;;6.87;;
1404;SDS011;697;51.114;6.542;2023-09-08T01:14:43;7.23;;;6.63;;
1404;SDS011;697;51.114;6.542;2023-09-08T01:17:12;7.57;;;6.77;;
1404;SDS011;697;51.114;6.542;2023-09-08T01:19:39;9.20;;;6.47;;
1404;SDS011;697;51.114;6.542;2023-09-08T01:22:16;11.27;;;6.50;;
1404;SDS011;697;51.114;6.542;2023-09-08T01:27:52;6.07;;;5.40;;
1404;SDS011;697;51.114;6.542;2023-09-08T01:30:21;8.00;;;6.87;;
1404;SDS011;697;51.114;6.542;2023-09-08T01:32:50;8.07;;;6.00;;
1404;SDS011;697;51.114;6.542;2023-09-08T01:35:18;7.40;;;6.70;;
1404;SDS011;697;51.114;6.542;2023-09-08T01:37:45;7.20;;;6.50;;
1404;SDS011;697;51.114;6.542;2023-09-08T01:40:13;9.57;;;6.73;;
1404;SDS011;697;51.114;6.542;2023-09-08T01:42:42;9.80;;;7.10;;
1404;SDS011;697;51.114;6.542;2023-09-08T01:45:09;8.27;;;7.50;;
1404;SDS011;697;51.114;6.542;2023-09-08T01:47:36;8.20;;;7.40;;
1404;SDS011;697;51.114;6.542;2023-09-08T01:50:03;7.63;;;6.93;;
1404;SDS011;697;51.114;6.542;2023-09-08T01:52:31;7.97;;;7.00;;
1404;SDS011;697;51.114;6.542;2023-09-08T01:54:58;10.07;;;8.10;;
1404;SDS011;697;51.114;6.542;2023-09-08T01:57:25;7.53;;;6.83;;
1404;SDS011;697;51.114;6.542;2023-09-08T01:59:53;10.10;;;6.97;;
1404;SDS011;697;51.114;6.542;2023-09-08T02:02:20;8.90;;;7.20;;
1404;SDS011;697;51.114;6.542;2023-09-08T02:04:47;7.73;;;7.00;;
1404;SDS011;697;51.114;6.542;2023-09-08T02:07:14;8.13;;;7.40;;
1404;SDS011;697;51.114;6.542;2023-09-08T02:09:41;7.93;;;7.23;;
1404;SDS011;697;51.114;6.542;2023-09-08T02:12:09;8.60;;;7.70;;
1404;SDS011;697;51.114;6.542;2023-09-08T02:14:36;8.77;;;7.47;;
1404;SDS011;697;51.114;6.542;2023-09-08T02:17:04;8.93;;;7.93;;
1404;SDS011;697;51.114;6.542;2023-09-08T02:19:32;8.70;;;7.30;;
1404;SDS011;697;51.114;6.542;2023-09-08T02:21:58;8.43;;;7.53;;
1404;SDS011;697;51.114;6.542;2023-09-08T02:24:25;9.63;;;8.00;;
1404;SDS011;697;51.114;6.542;2023-09-08T02:26:52;8.67;;;7.47;;
1404;SDS011;697;51.114;6.542;2023-09-08T02:29:19;8.20;;;7.37;;
1404;SDS011;697;51.114;6.542;2023-09-08T02:31:47;8.10;;;6.63;;
1404;SDS011;697;51.114;6.542;2023-09-08T02:34:15;9.70;;;7.43;;
1404;SDS011;697;51.114;6.542;2023-09-08T02:36:42;9.30;;;7.60;;
1404;SDS011;697;51.114;6.542;2023-09-08T02:39:09;8.60;;;7.80;;
1404;SDS011;697;51.114;6.542;2023-09-08T02:41:36;7.97;;;7.17;;
1404;SDS011;697;51.114;6.542;2023-09-08T02:44:03;8.10;;;7.10;;
1404;SDS011;697;51.114;6.542;2023-09-08T02:46:30;8.37;;;7.47;;
1404;SDS011;697;51.114;6.542;2023-09-08T02:48:57;8.10;;;7.27;;
1404;SDS011;697;51.114;6.542;2023-09-08T02:51:25;7.80;;;7.20;;
1404;SDS011;697;51.114;6.542;2023-09-08T02:53:52;9.13;;;8.23;;
1404;SDS011;697;51.114;6.542;2023-09-08T02:56:19;8.90;;;8.00;;
1404;SDS011;697;51.114;6.542;2023-09-08T02:58:44;9.43;;;7.80;;
1404;SDS011;697;51.114;6.542;2023-09-08T03:01:12;9.00;;;8.20;;
1404;SDS011;697;51.114;6.542;2023-09-08T03:03:40;9.77;;;8.47;;
1404;SDS011;697;51.114;6.542;2023-09-08T03:06:07;9.00;;;8.10;;
1404;SDS011;697;51.114;6.542;2023-09-08T03:08:35;9.27;;;8.30;;
1404;SDS011;697;51.114;6.542;2023-09-08T03:11:03;8.70;;;8.00;;
1404;SDS011;697;51.114;6.542;2023-09-08T03:13:30;9.87;;;8.70;;
1404;SDS011;697;51.114;6.542;2023-09-08T03:16:01;9.03;;;8.13;;
1404;SDS011;697;51.114;6.542;2023-09-08T03:18:29;10.37;;;9.33;;
1404;SDS011;697;51.114;6.542;2023-09-08T03:20:57;11.53;;;8.20;;
1404;SDS011;697;51.114;6.542;2023-09-08T03:23:24;11.67;;;9.10;;
1404;SDS011;697;51.114;6.542;2023-09-08T03:25:52;9.30;;;7.83;;
1404;SDS011;697;51.114;6.542;2023-09-08T03:28:19;8.90;;;8.07;;
1404;SDS011;697;51.114;6.542;2023-09-08T03:30:46;8.73;;;7.93;;
1404;SDS011;697;51.114;6.542;2023-09-08T03:33:13;9.67;;;8.67;;
1404;SDS011;697;51.114;6.542;2023-09-08T03:35:39;9.77;;;8.97;;
1404;SDS011;697;51.114;6.542;2023-09-08T03:38:06;9.90;;;8.90;;
1404;SDS011;697;51.114;6.542;2023-09-08T03:40:33;9.00;;;8.10;;
1404;SDS011;697;51.114;6.542;2023-09-08T03:43:01;9.33;;;8.07;;
1404;SDS011;697;51.114;6.542;2023-09-08T03:45:28;8.53;;;7.70;;
1404;SDS011;697;51.114;6.542;2023-09-08T03:47:55;8.43;;;7.73;;
1404;SDS011;697;51.114;6.542;2023-09-08T03:50:22;9.37;;;8.47;;
1404;SDS011;697;51.114;6.542;2023-09-08T03:52:49;8.90;;;8.00;;
1404;SDS011;697;51.114;6.542;2023-09-08T03:55:16;11.13;;;8.50;;
1404;SDS011;697;51.114;6.542;2023-09-08T03:57:43;9.37;;;8.43;;
1404;SDS011;697;51.114;6.542;2023-09-08T04:00:12;8.90;;;8.10;;
1404;SDS011;697;51.114;6.542;2023-09-08T04:02:44;9.60;;;8.70;;
1404;SDS011;697;51.114;6.542;2023-09-08T04:05:11;8.60;;;7.70;;
1404;SDS011;697;51.114;6.542;2023-09-08T04:07:37;9.57;;;8.70;;
1404;SDS011;697;51.114;6.542;2023-09-08T04:10:05;9.47;;;7.70;;
1404;SDS011;697;51.114;6.542;2023-09-08T04:12:33;12.70;;;8.67;;
1404;SDS011;697;51.114;6.542;2023-09-08T04:14:59;9.20;;;8.30;;
1404;SDS011;697;51.114;6.542;2023-09-08T04:17:27;8.73;;;7.90;;
1404;SDS011;697;51.114;6.542;2023-09-08T04:19:55;10.40;;;8.77;;
1404;SDS011;697;51.114;6.542;2023-09-08T04:22:21;9.20;;;8.40;;
1404;SDS011;697;51.114;6.542;2023-09-08T04:24:48;8.90;;;8.00;;
1404;SDS011;697;51.114;6.542;2023-09-08T04:27:17;11.63;;;8.63;;
1404;SDS011;697;51.114;6.542;2023-09-08T04:29:44;9.27;;;8.30;;
1404;SDS011;697;51.114;6.542;2023-09-08T04:32:12;10.20;;;8.40;;
1404;SDS011;697;51.114;6.542;2023-09-08T04:34:40;9.97;;;8.97;;
1404;SDS011;697;51.114;6.542;2023-09-08T04:37:08;9.33;;;8.40;;
1404;SDS011;697;51.114;6.542;2023-09-08T04:39:35;9.67;;;8.70;;
1404;SDS011;697;51.114;6.542;2023-09-08T04:42:03;10.43;;;9.27;;
1404;SDS011;697;51.114;6.542;2023-09-08T04:44:30;9.70;;;8.80;;
1404;SDS011;697;51.114;6.542;2023-09-08T04:46:57;9.70;;;8.70;;
1404;SDS011;697;51.114;6.542;2023-09-08T04:49:23;10.77;;;9.37;;
1404;SDS011;697;51.114;6.542;2023-09-08T04:51:53;9.73;;;8.73;;
1404;SDS011;697;51.114;6.542;2023-09-08T04:54:20;10.67;;;9.60;;
1404;SDS011;697;51.114;6.542;2023-09-08T04:56:47;11.90;;;9.00;;
1404;SDS011;697;51.114;6.542;2023-09-08T04:59:14;11.23;;;9.83;;
1404;SDS011;697;51.114;6.542;2023-09-08T05:01:41;14.33;;;10.50;;
1404;SDS011;697;51.114;6.542;2023-09-08T05:04:08;14.20;;;10.30;;
1404;SDS011;697;51.114;6.542;2023-09-08T05:06:35;16.57;;;11.60;;
1404;SDS011;697;51.114;6.542;2023-09-08T05:09:03;16.00;;;11.33;;
1404;SDS011;697;51.114;6.542;2023-09-08T05:11:32;11.30;;;10.20;;
1404;SDS011;697;51.114;6.542;2023-09-08T05:13:58;12.30;;;10.77;;
1404;SDS011;697;51.114;6.542;2023-09-08T05:16:25;11.77;;;10.57;;
1404;SDS011;697;51.114;6.542;2023-09-08T05:19:02;13.33;;;9.97;;
1404;SDS011;697;51.114;6.542;2023-09-08T05:21:29;12.60;;;10.80;;
1404;SDS011;697;51.114;6.542;2023-09-08T05:23:58;11.70;;;10.60;;
1404;SDS011;697;51.114;6.542;2023-09-08T05:26:26;12.20;;;11.00;;
1404;SDS011;697;51.114;6.542;2023-09-08T05:28:53;10.97;;;9.97;;
1404;SDS011;697;51.114;6.542;2023-09-08T05:31:20;12.03;;;10.80;;
1404;SDS011;697;51.114;6.542;2023-09-08T05:33:47;11.17;;;9.30;;
1404;SDS011;697;51.114;6.542;2023-09-08T05:36:14;11.17;;;10.17;;
1404;SDS011;697;51.114;6.542;2023-09-08T05:38:40;15.10;;;10.73;;
1404;SDS011;697;51.114;6.542;2023-09-08T05:41:07;10.87;;;9.50;;
1404;SDS011;697;51.114;6.542;2023-09-08T05:43:35;11.57;;;10.37;;
1404;SDS011;697;51.114;6.542;2023-09-08T05:46:02;10.67;;;9.67;;
1404;SDS011;697;51.114;6.542;2023-09-08T05:48:29;11.80;;;10.40;;
1404;SDS011;697;51.114;6.542;2023-09-08T05:50:56;11.70;;;10.43;;
1404;SDS011;697;51.114;6.542;2023-09-08T05:53:23;11.83;;;10.70;;
1404;SDS011;697;51.114;6.542;2023-09-08T05:55:50;14.00;;;10.20;;
1404;SDS011;697;51.114;6.542;2023-09-08T05:58:17;11.50;;;10.20;;
1404;SDS011;697;51.114;6.542;2023-09-08T06:00:46;12.47;;;10.00;;
1404;SDS011;697;51.114;6.542;2023-09-08T06:03:12;14.33;;;10.80;;
1404;SDS011;697;51.114;6.542;2023-09-08T06:05:39;18.40;;;10.10;;
1404;SDS011;697;51.114;6.542;2023-09-08T06:08:06;13.27;;;9.70;;
1404;SDS011;697;51.114;6.542;2023-09-08T06:10:33;12.90;;;10.30;;
1404;SDS011;697;51.114;6.542;2023-09-08T06:13:00;10.37;;;9.27;;
1404;SDS011;697;51.114;6.542;2023-09-08T06:15:26;13.63;;;10.60;;
1404;SDS011;697;51.114;6.542;2023-09-08T06:17:55;11.63;;;9.23;;
1404;SDS011;697;51.114;6.542;2023-09-08T06:20:21;10.30;;;9.30;;
1404;SDS011;697;51.114;6.542;2023-09-08T06:22:49;12.03;;;9.07;;
1404;SDS011;697;51.114;6.542;2023-09-08T06:25:16;9.23;;;8.30;;
1404;SDS011;697;51.114;6.542;2023-09-08T06:27:43;8.50;;;7.60;;
1404;SDS011;697;51.114;6.542;2023-09-08T06:30:11;10.07;;;9.07;;
1404;SDS011;697;51.114;6.542;2023-09-08T06:32:41;14.20;;;8.77;;
1404;SDS011;697;51.114;6.542;2023-09-08T06:35:09;8.50;;;7.67;;
1404;SDS011;697;51.114;6.542;2023-09-08T06:37:37;10.10;;;8.17;;
1404;SDS011;697;51.114;6.542;2023-09-08T06:40:05;8.10;;;7.40;;
1404;SDS011;697;51.114;6.542;2023-09-08T06:42:32;9.53;;;7.93;;
1404;SDS011;697;51.114;6.542;2023-09-08T06:44:59;13.30;;;9.40;;
1404;SDS011;697;51.114;6.542;2023-09-08T06:47:26;11.03;;;7.83;;
1404;SDS011;697;51.114;6.542;2023-09-08T06:49:53;11.07;;;7.37;;
1404;SDS011;697;51.114;6.542;2023-09-08T06:52:21;8.37;;;7.13;;
1404;SDS011;697;51.114;6.542;2023-09-08T06:54:48;11.03;;;8.10;;
1404;SDS011;697;51.114;6.542;2023-09-08T06:57:17;10.60;;;7.40;;
1404;SDS011;697;51.114;6.542;2023-09-08T06:59:44;12.10;;;7.33;;
1404;SDS011;697;51.114;6.542;2023-09-08T07:02:11;8.90;;;7.03;;
1404;SDS011;697;51.114;6.542;2023-09-08T07:04:38;9.30;;;7.73;;
1404;SDS011;697;51.114;6.542;2023-09-08T07:07:04;11.37;;;8.40;;
1404;SDS011;697;51.114;6.542;2023-09-08T07:09:34;11.83;;;8.47;;
1404;SDS011;697;51.114;6.542;2023-09-08T07:12:02;8.97;;;8.07;;
1404;SDS011;697;51.114;6.542;2023-09-08T07:14:29;8.30;;;7.50;;
1404;SDS011;697;51.114;6.542;2023-09-08T07:16:56;9.33;;;7.23;;
1404;SDS011;697;51.114;6.542;2023-09-08T07:19:23;8.67;;;7.77;;
1404;SDS011;697;51.114;6.542;2023-09-08T07:21:51;8.30;;;7.53;;
1404;SDS011;697;51.114;6.542;2023-09-08T07:24:18;9.07;;;7.83;;
1404;SDS011;697;51.114;6.542;2023-09-08T07:26:46;12.07;;;9.47;;
1404;SDS011;697;51.114;6.542;2023-09-08T07:29:13;11.03;;;7.27;;
1404;SDS011;697;51.114;6.542;2023-09-08T07:31:40;19.40;;;9.20;;
1404;SDS011;697;51.114;6.542;2023-09-08T07:34:07;9.07;;;8.27;;
1404;SDS011;697;51.114;6.542;2023-09-08T07:36:34;8.67;;;7.83;;
1404;SDS011;697;51.114;6.542;2023-09-08T07:39:02;10.83;;;8.53;;
1404;SDS011;697;51.114;6.542;2023-09-08T07:41:28;10.63;;;7.43;;
1404;SDS011;697;51.114;6.542;2023-09-08T07:43:57;10.17;;;6.70;;
1404;SDS011;697;51.114;6.542;2023-09-08T07:46:24;10.07;;;6.30;;
1404;SDS011;697;51.114;6.542;2023-09-08T07:48:51;9.47;;;7.20;;
1404;SDS011;697;51.114;6.542;2023-09-08T07:51:18;7.60;;;6.80;;
1404;SDS011;697;51.114;6.542;2023-09-08T07:53:45;8.13;;;6.40;;
1404;SDS011;697;51.114;6.542;2023-09-08T07:56:12;8.32;;;6.55;;
1404;SDS011;697;51.114;6.542;2023-09-08T07:58:38;7.93;;;5.90;;
1404;SDS011;697;51.114;6.542;2023-09-08T08:01:07;9.90;;;6.70;;
1404;SDS011;697;51.114;6.542;2023-09-08T08:03:33;12.77;;;6.03;;
1404;SDS011;697;51.114;6.542;2023-09-08T08:06:01;6.57;;;5.87;;
1404;SDS011;697;51.114;6.542;2023-09-08T08:08:30;10.20;;;6.43;;
1404;SDS011;697;51.114;6.542;2023-09-08T08:10:56;10.40;;;7.00;;
1404;SDS011;697;51.114;6.542;2023-09-08T08:13:24;7.23;;;6.53;;
1404;SDS011;697;51.114;6.542;2023-09-08T08:15:50;8.53;;;5.73;;
1404;SDS011;697;51.114;6.542;2023-09-08T08:18:19;7.30;;;6.50;;
1404;SDS011;697;51.114;6.542;2023-09-08T08:20:45;9.47;;;7.30;;
1404;SDS011;697;51.114;6.542;2023-09-08T08:23:12;7.63;;;6.07;;
1404;SDS011;697;51.114;6.542;2023-09-08T08:25:39;7.43;;;5.77;;
1404;SDS011;697;51.114;6.542;2023-09-08T08:28:06;18.50;;;6.40;;
1404;SDS011;697;51.114;6.542;2023-09-08T08:30:32;6.63;;;6.03;;
1404;SDS011;697;51.114;6.542;2023-09-08T08:33:00;7.00;;;6.40;;
1404;SDS011;697;51.114;6.542;2023-09-08T08:35:30;7.73;;;6.93;;
1404;SDS011;697;51.114;6.542;2023-09-08T08:37:57;7.40;;;6.07;;
1404;SDS011;697;51.114;6.542;2023-09-08T08:40:25;6.80;;;6.20;;
1404;SDS011;697;51.114;6.542;2023-09-08T08:42:54;9.10;;;6.47;;
1404;SDS011;697;51.114;6.542;2023-09-08T08:45:22;8.60;;;5.90;;
1404;SDS011;697;51.114;6.542;2023-09-08T08:47:49;6.63;;;5.87;;
1404;SDS011;697;51.114;6.542;2023-09-08T08:50:17;5.80;;;5.27;;
1404;SDS011;697;51.114;6.542;2023-09-08T08:52:45;7.47;;;6.20;;
1404;SDS011;697;51.114;6.542;2023-09-08T08:55:13;8.03;;;5.30;;
1404;SDS011;697;51.114;6.542;2023-09-08T08:57:40;6.20;;;5.40;;
1404;SDS011;697;51.114;6.542;2023-09-08T09:00:08;7.57;;;6.47;;
1404;SDS011;697;51.114;6.542;2023-09-08T09:02:37;6.23;;;5.60;;
1404;SDS011;697;51.114;6.542;2023-09-08T09:05:06;5.87;;;5.30;;
1404;SDS011;697;51.114;6.542;2023-09-08T09:07:35;8.00;;;6.90;;
1404;SDS011;697;51.114;6.542;2023-09-08T09:10:04;7.77;;;6.30;;
1404;SDS011;697;51.114;6.542;2023-09-08T09:12:40;6.20;;;5.60;;
1404;SDS011;697;51.114;6.542;2023-09-08T09:15:07;6.77;;;5.50;;
1404;SDS011;697;51.114;6.542;2023-09-08T09:17:34;6.43;;;5.93;;
1404;SDS011;697;51.114;6.542;2023-09-08T09:20:14;7.23;;;5.60;;
1404;SDS011;697;51.114;6.542;2023-09-08T09:22:42;6.50;;;5.90;;
1404;SDS011;697;51.114;6.542;2023-09-08T09:25:11;7.03;;;6.30;;
1404;SDS011;697;51.114;6.542;2023-09-08T09:27:49;8.40;;;5.93;;
1404;SDS011;697;51.114;6.542;2023-09-08T09:30:17;10.43;;;6.43;;
1404;SDS011;697;51.114;6.542;2023-09-08T09:32:44;8.47;;;6.70;;
1404;SDS011;697;51.114;6.542;2023-09-08T09:35:14;7.97;;;7.17;;
1404;SDS011;697;51.114;6.542;2023-09-08T09:37:42;6.97;;;5.80;;
1404;SDS011;697;51.114;6.542;2023-09-08T09:40:09;8.90;;;6.87;;
1404;SDS011;697;51.114;6.542;2023-09-08T09:42:37;7.13;;;6.43;;
1404;SDS011;697;51.114;6.542;2023-09-08T09:45:05;7.97;;;6.50;;
1404;SDS011;697;51.114;6.542;2023-09-08T09:47:34;8.10;;;7.30;;
1404;SDS011;697;51.114;6.542;2023-09-08T09:50:01;11.50;;;7.17;;
1404;SDS011;697;51.114;6.542;2023-09-08T09:52:28;11.70;;;6.77;;
1404;SDS011;697;51.114;6.542;2023-09-08T09:54:56;7.57;;;6.77;;
1404;SDS011;697;51.114;6.542;2023-09-08T09:57:25;7.70;;;6.90;;
1404;SDS011;697;51.114;6.542;2023-09-08T09:59:53;7.50;;;6.77;;
1404;SDS011;697;51.114;6.542;2023-09-08T10:02:21;9.20;;;7.10;;
1404;SDS011;697;51.114;6.542;2023-09-08T10:04:49;8.03;;;7.17;;
1404;SDS011;697;51.114;6.542;2023-09-08T10:07:16;8.13;;;7.33;;
1404;SDS011;697;51.114;6.542;2023-09-08T10:09:43;8.10;;;7.30;;
1404;SDS011;697;51.114;6.542;2023-09-08T10:12:11;9.30;;;7.20;;
1404;SDS011;697;51.114;6.542;2023-09-08T10:14:43;9.40;;;6.97;;
1404;SDS011;697;51.114;6.542;2023-09-08T10:17:11;10.20;;;8.23;;
1404;SDS011;697;51.114;6.542;2023-09-08T10:19:43;12.35;;;6.55;;
1404;SDS011;697;51.114;6.542;2023-09-08T10:22:16;7.68;;;6.97;;
1404;SDS011;697;51.114;6.542;2023-09-08T10:24:47;8.48;;;5.80;;
1404;SDS011;697;51.114;6.542;2023-09-08T10:27:15;6.90;;;6.25;;
1404;SDS011;697;51.114;6.542;2023-09-08T10:29:47;7.43;;;5.78;;
1404;SDS011;697;51.114;6.542;2023-09-08T10:32:15;7.38;;;6.60;;
1404;SDS011;697;51.114;6.542;2023-09-08T10:34:43;8.93;;;6.03;;
1404;SDS011;697;51.114;6.542;2023-09-08T10:37:20;7.35;;;6.68;;
1404;SDS011;697;51.114;6.542;2023-09-08T10:39:49;6.68;;;6.18;;
1404;SDS011;697;51.114;6.542;2023-09-08T10:42:20;6.47;;;5.82;;
1404;SDS011;697;51.114;6.542;2023-09-08T10:47:54;6.25;;;5.68;;
1404;SDS011;697;51.114;6.542;2023-09-08T10:50:26;10.88;;;5.55;;
1404;SDS011;697;51.114;6.542;2023-09-08T10:53:13;6.55;;;5.43;;
1404;SDS011;697;51.114;6.542;2023-09-08T10:55:41;8.10;;;6.05;;
1404;SDS011;697;51.114;6.542;2023-09-08T10:58:17;5.97;;;5.40;;
1404;SDS011;697;51.114;6.542;2023-09-08T11:00:46;8.90;;;5.50;;
1404;SDS011;697;51.114;6.542;2023-09-08T11:03:25;8.25;;;6.22;;
1404;SDS011;697;51.114;6.542;2023-09-08T11:05:53;5.68;;;5.18;;
1404;SDS011;697;51.114;6.542;2023-09-08T11:08:21;7.18;;;5.18;;
1404;SDS011;697;51.114;6.542;2023-09-08T11:10:48;5.47;;;4.93;;
1404;SDS011;697;51.114;6.542;2023-09-08T11:13:16;5.47;;;4.95;;
1404;SDS011;697;51.114;6.542;2023-09-08T11:15:42;5.30;;;4.78;;
1404;SDS011;697;51.114;6.542;2023-09-08T11:18:11;5.97;;;5.00;;
1404;SDS011;697;51.114;6.542;2023-09-08T11:20:38;5.80;;;5.10;;
1404;SDS011;697;51.114;6.542;2023-09-08T11:23:05;6.00;;;5.05;;
1404;SDS011;697;51.114;6.542;2023-09-08T11:25:32;5.10;;;4.60;;
1404;SDS011;697;51.114;6.542;2023-09-08T11:27:59;5.25;;;4.85;;
1404;SDS011;697;51.114;6.542;2023-09-08T11:30:26;7.95;;;4.88;;
1404;SDS011;697;51.114;6.542;2023-09-08T11:32:53;5.20;;;4.80;;
1404;SDS011;697;51.114;6.542;2023-09-08T11:35:25;7.63;;;5.00;;
1404;SDS011;697;51.114;6.542;2023-09-08T11:37:52;5.65;;;5.15;;
1404;SDS011;697;51.114;6.542;2023-09-08T11:40:24;5.60;;;5.05;;
1404;SDS011;697;51.114;6.542;2023-09-08T11:42:53;5.38;;;4.88;;
1404;SDS011;697;51.114;6.542;2023-09-08T11:45:20;5.10;;;4.60;;
1404;SDS011;697;51.114;6.542;2023-09-08T11:47:47;5.22;;;4.82;;
1404;SDS011;697;51.114;6.542;2023-09-08T11:50:15;4.88;;;4.47;;
1404;SDS011;697;51.114;6.542;2023-09-08T11:52:47;7.53;;;4.57;;
1404;SDS011;697;51.114;6.542;2023-09-08T11:55:14;6.55;;;4.43;;
1404;SDS011;697;51.114;6.542;2023-09-08T11:57:42;4.72;;;4.25;;
1404;SDS011;697;51.114;6.542;2023-09-08T12:00:12;6.00;;;4.57;;
1404;SDS011;697;51.114;6.542;2023-09-08T12:02:42;5.65;;;4.57;;
1404;SDS011;697;51.114;6.542;2023-09-08T12:05:11;4.57;;;4.18;;
1404;SDS011;697;51.114;6.542;2023-09-08T12:07:39;6.32;;;4.47;;
1404;SDS011;697;51.114;6.542;2023-09-08T12:10:10;5.38;;;4.45;;
1404;SDS011;697;51.114;6.542;2023-09-08T12:12:42;10.18;;;4.35;;
1404;SDS011;697;51.114;6.542;2023-09-08T12:15:10;5.40;;;4.80;;
1404;SDS011;697;51.114;6.542;2023-09-08T12:17:46;5.47;;;4.50;;
1404;SDS011;697;51.114;6.542;2023-09-08T12:20:14;4.75;;;4.20;;
1404;SDS011;697;51.114;6.542;2023-09-08T12:22:47;8.50;;;4.68;;
1404;SDS011;697;51.114;6.542;2023-09-08T12:25:18;6.03;;;4.70;;
1404;SDS011;697;51.114;6.542;2023-09-08T12:27:49;5.20;;;4.72;;
1404;SDS011;697;51.114;6.542;2023-09-08T12:30:17;4.70;;;4.30;;
1404;SDS011;697;51.114;6.542;2023-09-08T12:32:45;4.57;;;4.18;;
1404;SDS011;697;51.114;6.542;2023-09-08T12:35:18;7.50;;;4.72;;
1404;SDS011;697;51.114;6.542;2023-09-08T12:37:47;6.80;;;5.00;;
1404;SDS011;697;51.114;6.542;2023-09-08T12:40:19;5.22;;;4.25;;
1404;SDS011;697;51.114;6.542;2023-09-08T12:42:46;4.65;;;4.20;;
1404;SDS011;697;51.114;6.542;2023-09-08T12:45:13;4.50;;;4.10;;
1404;SDS011;697;51.114;6.542;2023-09-08T12:47:40;5.07;;;4.45;;
1404;SDS011;697;51.114;6.542;2023-09-08T12:50:07;8.75;;;5.03;;
1404;SDS011;697;51.114;6.542;2023-09-08T12:52:34;4.30;;;3.95;;
1404;SDS011;697;51.114;6.542;2023-09-08T12:55:01;5.50;;;4.10;;
1404;SDS011;697;51.114;6.542;2023-09-08T12:57:30;4.40;;;4.00;;
1404;SDS011;697;51.114;6.542;2023-09-08T12:59:56;9.27;;;4.05;;
1404;SDS011;697;51.114;6.542;2023-09-08T13:02:23;4.70;;;4.30;;
1404;SDS011;697;51.114;6.542;2023-09-08T13:04:50;4.57;;;3.97;;
1404;SDS011;697;51.114;6.542;2023-09-08T13:07:18;5.25;;;4.20;;
1404;SDS011;697;51.114;6.542;2023-09-08T13:09:44;10.73;;;4.47;;
1404;SDS011;697;51.114;6.542;2023-09-08T13:12:11;5.68;;;4.43;;
1404;SDS011;697;51.114;6.542;2023-09-08T13:14:40;9.30;;;4.05;;
1404;SDS011;697;51.114;6.542;2023-09-08T13:17:08;4.88;;;4.38;;
1404;SDS011;697;51.114;6.542;2023-09-08T13:19:36;4.68;;;4.32;;
1404;SDS011;697;51.114;6.542;2023-09-08T13:22:04;4.45;;;4.15;;
1404;SDS011;697;51.114;6.542;2023-09-08T13:24:30;4.55;;;4.25;;
1404;SDS011;697;51.114;6.542;2023-09-08T13:26:58;5.03;;;3.78;;
1404;SDS011;697;51.114;6.542;2023-09-08T13:29:25;4.78;;;4.38;;
1404;SDS011;697;51.114;6.542;2023-09-08T13:31:54;5.22;;;4.28;;
1404;SDS011;697;51.114;6.542;2023-09-08T13:34:22;4.30;;;3.90;;
1404;SDS011;697;51.114;6.542;2023-09-08T13:36:48;3.80;;;3.60;;
1404;SDS011;697;51.114;6.542;2023-09-08T13:39:15;4.00;;;3.70;;
1404;SDS011;697;51.114;6.542;2023-09-08T13:41:44;5.55;;;4.57;;
1404;SDS011;697;51.114;6.542;2023-09-08T13:44:12;6.95;;;3.75;;
1404;SDS011;697;51.114;6.542;2023-09-08T13:46:39;3.63;;;3.33;;
1404;SDS011;697;51.114;6.542;2023-09-08T13:49:07;4.63;;;4.10;;
1404;SDS011;697;51.114;6.542;2023-09-08T13:51:34;4.40;;;4.00;;
1404;SDS011;697;51.114;6.542;2023-09-08T13:54:01;3.75;;;3.45;;
1404;SDS011;697;51.114;6.542;2023-09-08T13:56:29;3.78;;;3.47;;
1404;SDS011;697;51.114;6.542;2023-09-08T13:58:55;3.58;;;3.28;;
1404;SDS011;697;51.114;6.542;2023-09-08T14:01:22;4.03;;;3.63;;
1404;SDS011;697;51.114;6.542;2023-09-08T14:03:49;4.78;;;3.42;;
1404;SDS011;697;51.114;6.542;2023-09-08T14:06:18;4.25;;;3.85;;
1404;SDS011;697;51.114;6.542;2023-09-08T14:08:45;4.10;;;3.80;;
1404;SDS011;697;51.114;6.542;2023-09-08T14:11:11;4.30;;;3.80;;
1404;SDS011;697;51.114;6.542;2023-09-08T14:13:38;5.18;;;4.00;;
1404;SDS011;697;51.114;6.542;2023-09-08T14:16:05;4.18;;;3.75;;
1404;SDS011;697;51.114;6.542;2023-09-08T14:18:33;5.20;;;4.28;;
1404;SDS011;697;51.114;6.542;2023-09-08T14:21:00;4.28;;;3.90;;
1404;SDS011;697;51.114;6.542;2023-09-08T14:23:29;3.60;;;3.40;;
1404;SDS011;697;51.114;6.542;2023-09-08T14:25:56;4.03;;;3.45;;
1404;SDS011;697;51.114;6.542;2023-09-08T14:28:23;4.20;;;3.80;;
1404;SDS011;697;51.114;6.542;2023-09-08T14:30:52;3.95;;;3.65;;
1404;SDS011;697;51.114;6.542;2023-09-08T14:33:19;4.38;;;3.97;;
1404;SDS011;697;51.114;6.542;2023-09-08T14:35:46;4.32;;;3.97;;
1404;SDS011;697;51.114;6.542;2023-09-08T14:38:16;4.18;;;3.83;;
1404;SDS011;697;51.114;6.542;2023-09-08T14:40:44;4.82;;;3.83;;
1404;SDS011;697;51.114;6.542;2023-09-08T14:43:19;4.85;;;3.70;;
1404;SDS011;697;51.114;6.542;2023-09-08T14:45:46;6.00;;;4.30;;
1404;SDS011;697;51.114;6.542;2023-09-08T14:48:13;4.32;;;4.00;;
1404;SDS011;697;51.114;6.542;2023-09-08T14:50:40;4.25;;;3.92;;
1404;SDS011;697;51.114;6.542;2023-09-08T14:53:07;4.72;;;4.35;;
1404;SDS011;697;51.114;6.542;2023-09-08T14:55:33;4.47;;;4.07;;
1404;SDS011;697;51.114;6.542;2023-09-08T14:58:03;5.10;;;3.85;;
1404;SDS011;697;51.114;6.542;2023-09-08T15:00:31;3.72;;;3.42;;
1404;SDS011;697;51.114;6.542;2023-09-08T15:02:57;9.13;;;4.00;;
1404;SDS011;697;51.114;6.542;2023-09-08T15:05:26;4.55;;;3.75;;
1404;SDS011;697;51.114;6.542;2023-09-08T15:07:53;6.40;;;4.20;;
1404;SDS011;697;51.114;6.542;2023-09-08T15:10:20;4.63;;;4.22;;
1404;SDS011;697;51.114;6.542;2023-09-08T15:12:46;3.80;;;3.50;;
1404;SDS011;697;51.114;6.542;2023-09-08T15:15:15;5.15;;;4.53;;
1404;SDS011;697;51.114;6.542;2023-09-08T15:17:43;4.80;;;4.10;;
1404;SDS011;697;51.114;6.542;2023-09-08T15:20:10;5.82;;;3.70;;
1404;SDS011;697;51.114;6.542;2023-09-08T15:22:38;7.18;;;4.70;;
1404;SDS011;697;51.114;6.542;2023-09-08T15:25:05;4.45;;;4.15;;
1404;SDS011;697;51.114;6.542;2023-09-08T15:27:32;4.70;;;4.03;;
1404;SDS011;697;51.114;6.542;2023-09-08T15:29:59;8.50;;;4.40;;
1404;SDS011;697;51.114;6.542;2023-09-08T15:32:29;4.25;;;3.95;;
1404;SDS011;697;51.114;6.542;2023-09-08T15:34:55;4.93;;;4.45;;